sensor_id;sensor_type;location;lat;lon;timestamp;pressure;altitude;pressure_sealevel;temperature;humidity
50867;BME280;36839;51.946;21.002;2023-02-01T00:01:06;98868.88;;;1.32;100.00
50867;BME280;36839;51.946;21.002;2023-02-01T00:03:33;98862.08;;;1.28;100.00
50867;BME280;36839;51.946;21.002;2023-02-01T00:06:00;98857.50;;;1.25;100.00
50867;BME280;36839;51.946;21.002;2023-02-01T00:08:27;98859.27;;;1.22;100.00
50867;BME280;36839;51.946;21.002;2023-02-01T00:11:06;98849.29;;;1.19;100.00
50867;BME280;36839;51.946;21.002;2023-02-01T00:13:37;98839.17;;;1.19;100.00
50867;BME280;36839;51.946;21.002;2023-02-01T00:16:06;98846.31;;;1.17;100.00
50867;BME280;36839;51.946;21.002;2023-02-01T00:18:33;98845.95;;;1.13;100.00
50867;BME280;36839;51.946;21.002;2023-02-01T00:21:00;98850.77;;;1.08;100.00
50867;BME280;36839;51.946;21.002;2023-02-01T00:23:27;98849.68;;;1.03;100.00
50867;BME280;36839;51.946;21.002;2023-02-01T00:25:54;98851.32;;;1.01;100.00
50867;BME280;36839;51.946;21.002;2023-02-01T00:28:22;98851.35;;;1.00;100.00
50867;BME280;36839;51.946;21.002;2023-02-01T00:30:59;98857.83;;;1.00;100.00
50867;BME280;36839;51.946;21.002;2023-02-01T00:33:26;98852.77;;;1.00;100.00
50867;BME280;36839;51.946;21.002;2023-02-01T00:36:02;98847.11;;;1.00;100.00
50867;BME280;36839;51.946;21.002;2023-02-01T00:38:32;98840.91;;;0.99;100.00
50867;BME280;36839;51.946;21.002;2023-02-01T00:43:32;98839.40;;;1.00;100.00
50867;BME280;36839;51.946;21.002;2023-02-01T00:46:00;98835.17;;;1.03;100.00
50867;BME280;36839;51.946;21.002;2023-02-01T00:48:29;98840.65;;;1.07;100.00
50867;BME280;36839;51.946;21.002;2023-02-01T00:51:04;98842.48;;;1.11;100.00
50867;BME280;36839;51.946;21.002;2023-02-01T00:53:32;98842.74;;;1.15;100.00
50867;BME280;36839;51.946;21.002;2023-02-01T00:55:58;98848.08;;;1.19;100.00
50867;BME280;36839;51.946;21.002;2023-02-01T00:58:26;98853.50;;;1.21;100.00
50867;BME280;36839;51.946;21.002;2023-02-01T01:03:35;98865.80;;;1.30;100.00
50867;BME280;36839;51.946;21.002;2023-02-01T01:06:06;98869.61;;;1.38;100.00
50867;BME280;36839;51.946;21.002;2023-02-01T01:08:37;98877.72;;;1.50;100.00
50867;BME280;36839;51.946;21.002;2023-02-01T01:11:09;98874.56;;;1.65;100.00
50867;BME280;36839;51.946;21.002;2023-02-01T01:13:37;98872.50;;;1.78;100.00
50867;BME280;36839;51.946;21.002;2023-02-01T01:16:06;98865.20;;;1.88;100.00
50867;BME280;36839;51.946;21.002;2023-02-01T01:18:40;98859.65;;;1.95;100.00
50867;BME280;36839;51.946;21.002;2023-02-01T01:21:13;98861.61;;;2.01;100.00
50867;BME280;36839;51.946;21.002;2023-02-01T01:23:46;98855.27;;;2.04;100.00
50867;BME280;36839;51.946;21.002;2023-02-01T01:26:22;98847.09;;;2.03;100.00
50867;BME280;36839;51.946;21.002;2023-02-01T01:28:51;98851.75;;;2.01;100.00
50867;BME280;36839;51.946;21.002;2023-02-01T01:31:21;98855.17;;;2.00;100.00
50867;BME280;36839;51.946;21.002;2023-02-01T01:34:03;98850.41;;;1.96;100.00
50867;BME280;36839;51.946;21.002;2023-02-01T01:36:29;98843.48;;;1.91;100.00
50867;BME280;36839;51.946;21.002;2023-02-01T01:38:56;98852.55;;;1.87;100.00
50867;BME280;36839;51.946;21.002;2023-02-01T01:41:28;98848.75;;;1.84;100.00
50867;BME280;36839;51.946;21.002;2023-02-01T01:44:03;98859.29;;;1.79;100.00
50867;BME280;36839;51.946;21.002;2023-02-01T01:46:36;98860.87;;;1.76;100.00
50867;BME280;36839;51.946;21.002;2023-02-01T01:49:09;98869.07;;;1.78;100.00
50867;BME280;36839;51.946;21.002;2023-02-01T01:51:43;98870.80;;;1.84;100.00
50867;BME280;36839;51.946;21.002;2023-02-01T01:56:51;98866.77;;;1.83;100.00
50867;BME280;36839;51.946;21.002;2023-02-01T01:59:22;98861.59;;;1.84;100.00
50867;BME280;36839;51.946;21.002;2023-02-01T02:01:51;98863.10;;;1.82;100.00
50867;BME280;36839;51.946;21.002;2023-02-01T02:04:19;98857.77;;;1.77;100.00
50867;BME280;36839;51.946;21.002;2023-02-01T02:06:55;98858.98;;;1.71;100.00
50867;BME280;36839;51.946;21.002;2023-02-01T02:09:26;98858.54;;;1.63;100.00
50867;BME280;36839;51.946;21.002;2023-02-01T02:11:52;98878.38;;;1.62;100.00
50867;BME280;36839;51.946;21.002;2023-02-01T02:14:21;98879.23;;;1.65;100.00
50867;BME280;36839;51.946;21.002;2023-02-01T02:23:35;98890.28;;;1.74;100.00
50867;BME280;36839;51.946;21.002;2023-02-01T02:26:38;98902.94;;;1.79;100.00
50867;BME280;36839;51.946;21.002;2023-02-01T02:30:00;98901.58;;;1.82;100.00
50867;BME280;36839;51.946;21.002;2023-02-01T02:35:06;98906.90;;;1.88;100.00
50867;BME280;36839;51.946;21.002;2023-02-01T02:44:34;98913.61;;;2.00;100.00
50867;BME280;36839;51.946;21.002;2023-02-01T02:50:42;98924.42;;;2.06;100.00
50867;BME280;36839;51.946;21.002;2023-02-01T02:53:39;98920.50;;;2.06;100.00
50867;BME280;36839;51.946;21.002;2023-02-01T02:56:29;98915.73;;;2.04;100.00
50867;BME280;36839;51.946;21.002;2023-02-01T02:59:19;98918.14;;;2.00;100.00
50867;BME280;36839;51.946;21.002;2023-02-01T03:02:06;98925.58;;;1.98;100.00
50867;BME280;36839;51.946;21.002;2023-02-01T03:04:55;98926.77;;;1.96;100.00
50867;BME280;36839;51.946;21.002;2023-02-01T03:08:00;98922.28;;;1.95;100.00
50867;BME280;36839;51.946;21.002;2023-02-01T03:16:27;98926.59;;;1.83;100.00
50867;BME280;36839;51.946;21.002;2023-02-01T03:19:29;98937.51;;;1.85;100.00
50867;BME280;36839;51.946;21.002;2023-02-01T03:21:59;98939.13;;;1.87;100.00
50867;BME280;36839;51.946;21.002;2023-02-01T03:24:49;98932.69;;;1.86;100.00
50867;BME280;36839;51.946;21.002;2023-02-01T03:27:24;98922.29;;;1.86;100.00
50867;BME280;36839;51.946;21.002;2023-02-01T03:32:51;98924.07;;;1.82;100.00
50867;BME280;36839;51.946;21.002;2023-02-01T03:46:41;98942.98;;;1.87;100.00
50867;BME280;36839;51.946;21.002;2023-02-01T03:49:14;98946.96;;;1.87;100.00
50867;BME280;36839;51.946;21.002;2023-02-01T03:51:42;98952.20;;;1.91;100.00
50867;BME280;36839;51.946;21.002;2023-02-01T03:54:12;98955.30;;;1.93;100.00
50867;BME280;36839;51.946;21.002;2023-02-01T03:56:44;98955.73;;;1.93;100.00
50867;BME280;36839;51.946;21.002;2023-02-01T03:59:12;98954.90;;;1.95;100.00
50867;BME280;36839;51.946;21.002;2023-02-01T04:01:39;98942.85;;;1.98;100.00
50867;BME280;36839;51.946;21.002;2023-02-01T04:04:07;98937.98;;;1.96;100.00
50867;BME280;36839;51.946;21.002;2023-02-01T04:06:33;98948.84;;;1.98;100.00
50867;BME280;36839;51.946;21.002;2023-02-01T04:08:59;98949.40;;;1.98;100.00
50867;BME280;36839;51.946;21.002;2023-02-01T04:11:26;98947.23;;;2.01;100.00
50867;BME280;36839;51.946;21.002;2023-02-01T04:13:55;98933.52;;;2.02;100.00
50867;BME280;36839;51.946;21.002;2023-02-01T04:16:21;98938.05;;;2.03;100.00
50867;BME280;36839;51.946;21.002;2023-02-01T04:18:48;98940.47;;;2.05;100.00
50867;BME280;36839;51.946;21.002;2023-02-01T04:21:16;98947.98;;;2.04;100.00
50867;BME280;36839;51.946;21.002;2023-02-01T04:23:42;98954.61;;;2.07;100.00
50867;BME280;36839;51.946;21.002;2023-02-01T04:26:08;98947.66;;;2.11;100.00
50867;BME280;36839;51.946;21.002;2023-02-01T04:28:37;98945.04;;;2.13;100.00
50867;BME280;36839;51.946;21.002;2023-02-01T04:31:04;98946.89;;;2.13;100.00
50867;BME280;36839;51.946;21.002;2023-02-01T04:33:31;98952.35;;;2.15;100.00
50867;BME280;36839;51.946;21.002;2023-02-01T04:36:00;98953.56;;;2.16;100.00
50867;BME280;36839;51.946;21.002;2023-02-01T04:38:27;98958.80;;;2.16;100.00
50867;BME280;36839;51.946;21.002;2023-02-01T04:40:56;98955.49;;;2.20;100.00
50867;BME280;36839;51.946;21.002;2023-02-01T04:43:31;98962.51;;;2.19;100.00
50867;BME280;36839;51.946;21.002;2023-02-01T04:45:58;98962.77;;;2.18;100.00
50867;BME280;36839;51.946;21.002;2023-02-01T04:48:24;98959.77;;;2.18;100.00
50867;BME280;36839;51.946;21.002;2023-02-01T04:50:52;98956.17;;;2.15;100.00
50867;BME280;36839;51.946;21.002;2023-02-01T04:53:19;98951.85;;;2.14;100.00
50867;BME280;36839;51.946;21.002;2023-02-01T04:55:50;98951.21;;;2.11;100.00
50867;BME280;36839;51.946;21.002;2023-02-01T04:58:17;98955.73;;;2.11;100.00
50867;BME280;36839;51.946;21.002;2023-02-01T05:00:46;98955.46;;;2.11;100.00
50867;BME280;36839;51.946;21.002;2023-02-01T05:03:13;98963.14;;;2.12;100.00
50867;BME280;36839;51.946;21.002;2023-02-01T05:05:49;98968.81;;;2.11;100.00
50867;BME280;36839;51.946;21.002;2023-02-01T05:08:17;98967.55;;;2.10;100.00
50867;BME280;36839;51.946;21.002;2023-02-01T05:10:44;98964.33;;;2.11;100.00
50867;BME280;36839;51.946;21.002;2023-02-01T05:13:11;98966.02;;;2.11;100.00
50867;BME280;36839;51.946;21.002;2023-02-01T05:15:56;98967.47;;;2.13;100.00
50867;BME280;36839;51.946;21.002;2023-02-01T05:18:22;98970.14;;;2.13;100.00
50867;BME280;36839;51.946;21.002;2023-02-01T05:20:49;98961.30;;;2.12;100.00
50867;BME280;36839;51.946;21.002;2023-02-01T05:23:15;98972.80;;;2.12;100.00
50867;BME280;36839;51.946;21.002;2023-02-01T05:25:44;98967.54;;;2.10;100.00
50867;BME280;36839;51.946;21.002;2023-02-01T05:28:10;98965.05;;;2.11;100.00
50867;BME280;36839;51.946;21.002;2023-02-01T05:30:37;98955.54;;;2.13;100.00
50867;BME280;36839;51.946;21.002;2023-02-01T05:33:03;98955.46;;;2.11;100.00
50867;BME280;36839;51.946;21.002;2023-02-01T05:35:30;98959.54;;;2.11;100.00
50867;BME280;36839;51.946;21.002;2023-02-01T05:37:57;98963.30;;;2.11;100.00
50867;BME280;36839;51.946;21.002;2023-02-01T05:40:23;98953.17;;;2.12;100.00
50867;BME280;36839;51.946;21.002;2023-02-01T05:42:49;98954.35;;;2.10;100.00
50867;BME280;36839;51.946;21.002;2023-02-01T05:45:16;98954.29;;;2.03;100.00
50867;BME280;36839;51.946;21.002;2023-02-01T05:47:42;98956.33;;;1.96;100.00
50867;BME280;36839;51.946;21.002;2023-02-01T05:50:10;98956.02;;;1.94;100.00
50867;BME280;36839;51.946;21.002;2023-02-01T05:52:36;98960.61;;;1.94;100.00
50867;BME280;36839;51.946;21.002;2023-02-01T05:55:03;98958.23;;;1.96;100.00
50867;BME280;36839;51.946;21.002;2023-02-01T05:57:30;98965.67;;;1.95;100.00
50867;BME280;36839;51.946;21.002;2023-02-01T05:59:57;98957.67;;;1.89;100.00
50867;BME280;36839;51.946;21.002;2023-02-01T06:02:23;98950.56;;;1.81;100.00
50867;BME280;36839;51.946;21.002;2023-02-01T06:04:51;98957.06;;;1.76;100.00
50867;BME280;36839;51.946;21.002;2023-02-01T06:07:17;98956.86;;;1.74;100.00
50867;BME280;36839;51.946;21.002;2023-02-01T06:09:45;98963.88;;;1.73;100.00
50867;BME280;36839;51.946;21.002;2023-02-01T06:12:11;98959.56;;;1.73;100.00
50867;BME280;36839;51.946;21.002;2023-02-01T06:14:38;98963.47;;;1.75;100.00
50867;BME280;36839;51.946;21.002;2023-02-01T06:17:05;98960.10;;;1.75;100.00
50867;BME280;36839;51.946;21.002;2023-02-01T06:19:32;98954.25;;;1.78;100.00
50867;BME280;36839;51.946;21.002;2023-02-01T06:21:58;98955.88;;;1.80;100.00
50867;BME280;36839;51.946;21.002;2023-02-01T06:24:27;98954.41;;;1.91;100.00
50867;BME280;36839;51.946;21.002;2023-02-01T06:26:56;98958.23;;;1.92;100.00
50867;BME280;36839;51.946;21.002;2023-02-01T06:29:22;98949.06;;;1.88;100.00
50867;BME280;36839;51.946;21.002;2023-02-01T06:31:49;98947.02;;;1.84;100.00
50867;BME280;36839;51.946;21.002;2023-02-01T06:34:17;98949.15;;;1.85;100.00
50867;BME280;36839;51.946;21.002;2023-02-01T06:36:44;98953.43;;;1.86;100.00
50867;BME280;36839;51.946;21.002;2023-02-01T06:39:14;98955.80;;;1.88;100.00
50867;BME280;36839;51.946;21.002;2023-02-01T06:41:45;98960.83;;;1.91;100.00
50867;BME280;36839;51.946;21.002;2023-02-01T06:44:13;98954.73;;;1.95;100.00
50867;BME280;36839;51.946;21.002;2023-02-01T06:46:40;98954.23;;;1.99;100.00
50867;BME280;36839;51.946;21.002;2023-02-01T06:49:07;98950.07;;;2.02;100.00
50867;BME280;36839;51.946;21.002;2023-02-01T06:51:36;98956.14;;;2.03;100.00
50867;BME280;36839;51.946;21.002;2023-02-01T06:54:03;98951.27;;;2.06;100.00
50867;BME280;36839;51.946;21.002;2023-02-01T06:56:30;98945.38;;;2.08;100.00
50867;BME280;36839;51.946;21.002;2023-02-01T06:59:03;98942.40;;;2.12;100.00
50867;BME280;36839;51.946;21.002;2023-02-01T07:01:30;98932.79;;;2.14;100.00
50867;BME280;36839;51.946;21.002;2023-02-01T07:03:56;98940.90;;;2.18;100.00
50867;BME280;36839;51.946;21.002;2023-02-01T07:06:23;98940.05;;;2.22;100.00
50867;BME280;36839;51.946;21.002;2023-02-01T07:08:50;98952.02;;;2.25;100.00
50867;BME280;36839;51.946;21.002;2023-02-01T07:11:19;98949.64;;;2.25;100.00
50867;BME280;36839;51.946;21.002;2023-02-01T07:13:46;98941.51;;;2.27;100.00
50867;BME280;36839;51.946;21.002;2023-02-01T07:16:18;98940.27;;;2.27;100.00
50867;BME280;36839;51.946;21.002;2023-02-01T07:18:46;98936.61;;;2.27;100.00
50867;BME280;36839;51.946;21.002;2023-02-01T07:21:14;98925.85;;;2.26;100.00
50867;BME280;36839;51.946;21.002;2023-02-01T07:23:40;98927.56;;;2.25;100.00
50867;BME280;36839;51.946;21.002;2023-02-01T07:26:11;98933.11;;;2.24;100.00
50867;BME280;36839;51.946;21.002;2023-02-01T07:28:41;98932.29;;;2.24;100.00
50867;BME280;36839;51.946;21.002;2023-02-01T07:31:12;98929.52;;;2.20;100.00
50867;BME280;36839;51.946;21.002;2023-02-01T07:33:41;98931.67;;;2.19;100.00
50867;BME280;36839;51.946;21.002;2023-02-01T07:36:12;98942.27;;;2.30;100.00
50867;BME280;36839;51.946;21.002;2023-02-01T07:38:42;98948.08;;;2.28;100.00
50867;BME280;36839;51.946;21.002;2023-02-01T07:41:10;98952.22;;;2.28;100.00
50867;BME280;36839;51.946;21.002;2023-02-01T07:43:36;98953.46;;;2.28;100.00
50867;BME280;36839;51.946;21.002;2023-02-01T07:46:05;98948.52;;;2.29;100.00
50867;BME280;36839;51.946;21.002;2023-02-01T07:48:35;98946.95;;;2.30;100.00
50867;BME280;36839;51.946;21.002;2023-02-01T07:51:05;98949.65;;;2.32;100.00
50867;BME280;36839;51.946;21.002;2023-02-01T07:53:33;98952.21;;;2.33;100.00
50867;BME280;36839;51.946;21.002;2023-02-01T07:56:00;98954.86;;;2.35;100.00
50867;BME280;36839;51.946;21.002;2023-02-01T07:58:28;98957.05;;;2.38;100.00
50867;BME280;36839;51.946;21.002;2023-02-01T08:00:55;98959.41;;;2.43;100.00
50867;BME280;36839;51.946;21.002;2023-02-01T08:03:42;98951.81;;;2.48;100.00
50867;BME280;36839;51.946;21.002;2023-02-01T08:06:08;98956.12;;;2.52;100.00
50867;BME280;36839;51.946;21.002;2023-02-01T08:08:34;98964.27;;;2.54;100.00
50867;BME280;36839;51.946;21.002;2023-02-01T08:11:03;98957.34;;;2.56;100.00
50867;BME280;36839;51.946;21.002;2023-02-01T08:13:34;98959.45;;;2.58;100.00
50867;BME280;36839;51.946;21.002;2023-02-01T08:16:03;98962.98;;;2.62;100.00
50867;BME280;36839;51.946;21.002;2023-02-01T08:18:33;98957.05;;;2.64;100.00
50867;BME280;36839;51.946;21.002;2023-02-01T08:21:09;98958.09;;;2.64;100.00
50867;BME280;36839;51.946;21.002;2023-02-01T08:23:37;98963.42;;;2.64;100.00
50867;BME280;36839;51.946;21.002;2023-02-01T08:26:27;98962.61;;;2.64;100.00
50867;BME280;36839;51.946;21.002;2023-02-01T08:28:57;98963.46;;;2.66;100.00
50867;BME280;36839;51.946;21.002;2023-02-01T08:31:25;98962.46;;;2.67;100.00
50867;BME280;36839;51.946;21.002;2023-02-01T08:33:56;98962.20;;;2.68;100.00
50867;BME280;36839;51.946;21.002;2023-02-01T08:36:27;98965.27;;;2.65;100.00
50867;BME280;36839;51.946;21.002;2023-02-01T08:38:58;98966.38;;;2.60;100.00
50867;BME280;36839;51.946;21.002;2023-02-01T08:41:29;98964.92;;;2.51;100.00
50867;BME280;36839;51.946;21.002;2023-02-01T08:43:56;98963.42;;;2.38;100.00
50867;BME280;36839;51.946;21.002;2023-02-01T08:46:28;98964.70;;;2.27;100.00
50867;BME280;36839;51.946;21.002;2023-02-01T08:48:58;98965.59;;;2.24;100.00
50867;BME280;36839;51.946;21.002;2023-02-01T08:51:25;98963.41;;;2.24;100.00
50867;BME280;36839;51.946;21.002;2023-02-01T08:53:55;98959.71;;;2.25;100.00
50867;BME280;36839;51.946;21.002;2023-02-01T08:56:21;98957.02;;;2.27;100.00
50867;BME280;36839;51.946;21.002;2023-02-01T08:58:48;98962.27;;;2.32;100.00
50867;BME280;36839;51.946;21.002;2023-02-01T09:01:16;98958.84;;;2.35;100.00
50867;BME280;36839;51.946;21.002;2023-02-01T09:03:44;98958.02;;;2.41;100.00
50867;BME280;36839;51.946;21.002;2023-02-01T09:06:14;98960.63;;;2.50;100.00
50867;BME280;36839;51.946;21.002;2023-02-01T09:08:44;98964.23;;;2.57;100.00
50867;BME280;36839;51.946;21.002;2023-02-01T09:11:14;98957.39;;;2.64;100.00
50867;BME280;36839;51.946;21.002;2023-02-01T09:13:43;98955.96;;;2.70;100.00
50867;BME280;36839;51.946;21.002;2023-02-01T09:16:11;98961.42;;;2.75;100.00
50867;BME280;36839;51.946;21.002;2023-02-01T09:18:37;98961.16;;;2.78;100.00
50867;BME280;36839;51.946;21.002;2023-02-01T09:21:07;98961.70;;;2.83;100.00
50867;BME280;36839;51.946;21.002;2023-02-01T09:23:35;98958.60;;;2.86;100.00
50867;BME280;36839;51.946;21.002;2023-02-01T09:26:04;98955.30;;;2.89;100.00
50867;BME280;36839;51.946;21.002;2023-02-01T09:28:34;98954.31;;;2.93;100.00
50867;BME280;36839;51.946;21.002;2023-02-01T09:31:03;98954.70;;;2.95;100.00
50867;BME280;36839;51.946;21.002;2023-02-01T09:33:31;98950.89;;;2.97;100.00
50867;BME280;36839;51.946;21.002;2023-02-01T09:36:01;98947.98;;;3.00;100.00
50867;BME280;36839;51.946;21.002;2023-02-01T09:38:28;98958.95;;;2.95;100.00
50867;BME280;36839;51.946;21.002;2023-02-01T09:40:55;98964.23;;;2.95;100.00
50867;BME280;36839;51.946;21.002;2023-02-01T09:43:55;98948.52;;;3.00;100.00
50867;BME280;36839;51.946;21.002;2023-02-01T09:46:32;98950.20;;;3.12;100.00
50867;BME280;36839;51.946;21.002;2023-02-01T09:49:08;98942.83;;;3.24;100.00
50867;BME280;36839;51.946;21.002;2023-02-01T09:51:42;98942.57;;;3.38;100.00
50867;BME280;36839;51.946;21.002;2023-02-01T09:54:24;98946.39;;;3.47;100.00
50867;BME280;36839;51.946;21.002;2023-02-01T09:57:18;98935.80;;;3.57;100.00
50867;BME280;36839;51.946;21.002;2023-02-01T09:59:53;98932.99;;;3.65;100.00
50867;BME280;36839;51.946;21.002;2023-02-01T10:02:26;98935.02;;;3.71;100.00
50867;BME280;36839;51.946;21.002;2023-02-01T10:05:00;98937.92;;;3.82;100.00
50867;BME280;36839;51.946;21.002;2023-02-01T10:07:40;98943.15;;;3.92;100.00
50867;BME280;36839;51.946;21.002;2023-02-01T10:10:18;98945.44;;;4.01;100.00
50867;BME280;36839;51.946;21.002;2023-02-01T10:18:44;98930.38;;;4.17;100.00
50867;BME280;36839;51.946;21.002;2023-02-01T10:21:42;98924.39;;;4.12;100.00
50867;BME280;36839;51.946;21.002;2023-02-01T10:24:29;98933.06;;;4.06;100.00
50867;BME280;36839;51.946;21.002;2023-02-01T10:27:07;98931.92;;;4.06;100.00
50867;BME280;36839;51.946;21.002;2023-02-01T10:29:42;98938.84;;;4.16;100.00
50867;BME280;36839;51.946;21.002;2023-02-01T10:32:20;98937.05;;;4.16;100.00
50867;BME280;36839;51.946;21.002;2023-02-01T10:34:58;98940.05;;;4.16;100.00
50867;BME280;36839;51.946;21.002;2023-02-01T10:37:29;98942.05;;;4.15;100.00
50867;BME280;36839;51.946;21.002;2023-02-01T10:40:32;98940.38;;;4.17;100.00
50867;BME280;36839;51.946;21.002;2023-02-01T10:43:00;98933.04;;;4.20;100.00
50867;BME280;36839;51.946;21.002;2023-02-01T10:45:47;98928.41;;;4.24;100.00
50867;BME280;36839;51.946;21.002;2023-02-01T10:48:15;98931.68;;;4.22;100.00
50867;BME280;36839;51.946;21.002;2023-02-01T10:53:44;98932.45;;;4.16;100.00
50867;BME280;36839;51.946;21.002;2023-02-01T10:56:13;98934.59;;;4.10;100.00
50867;BME280;36839;51.946;21.002;2023-02-01T10:58:47;98928.39;;;4.02;100.00
50867;BME280;36839;51.946;21.002;2023-02-01T11:01:22;98926.81;;;3.97;100.00
50867;BME280;36839;51.946;21.002;2023-02-01T11:04:01;98929.80;;;3.94;100.00
50867;BME280;36839;51.946;21.002;2023-02-01T11:06:37;98932.64;;;3.96;100.00
50867;BME280;36839;51.946;21.002;2023-02-01T11:14:41;98935.09;;;3.94;100.00
50867;BME280;36839;51.946;21.002;2023-02-01T11:17:17;98930.30;;;3.90;100.00
50867;BME280;36839;51.946;21.002;2023-02-01T11:19:57;98933.80;;;3.85;100.00
50867;BME280;36839;51.946;21.002;2023-02-01T11:22:27;98934.05;;;3.82;100.00
50867;BME280;36839;51.946;21.002;2023-02-01T11:24:56;98928.36;;;3.80;100.00
50867;BME280;36839;51.946;21.002;2023-02-01T11:27:24;98924.38;;;3.77;100.00
50867;BME280;36839;51.946;21.002;2023-02-01T11:30:17;98923.48;;;3.75;100.00
50867;BME280;36839;51.946;21.002;2023-02-01T11:32:52;98921.25;;;3.75;100.00
50867;BME280;36839;51.946;21.002;2023-02-01T11:35:20;98921.50;;;3.71;100.00
50867;BME280;36839;51.946;21.002;2023-02-01T11:37:55;98918.95;;;3.69;100.00
50867;BME280;36839;51.946;21.002;2023-02-01T11:40:36;98920.39;;;3.66;100.00
50867;BME280;36839;51.946;21.002;2023-02-01T11:43:14;98919.74;;;3.67;100.00
50867;BME280;36839;51.946;21.002;2023-02-01T11:46:03;98914.80;;;3.69;100.00
50867;BME280;36839;51.946;21.002;2023-02-01T11:48:32;98916.59;;;3.72;100.00
50867;BME280;36839;51.946;21.002;2023-02-01T11:51:15;98915.77;;;3.72;100.00
50867;BME280;36839;51.946;21.002;2023-02-01T11:54:08;98911.55;;;3.71;100.00
50867;BME280;36839;51.946;21.002;2023-02-01T12:06:04;98907.22;;;3.76;100.00
50867;BME280;36839;51.946;21.002;2023-02-01T12:09:03;98905.84;;;3.79;100.00
50867;BME280;36839;51.946;21.002;2023-02-01T12:29:46;98884.70;;;3.57;100.00
50867;BME280;36839;51.946;21.002;2023-02-01T12:47:16;98884.17;;;3.42;100.00
50867;BME280;36839;51.946;21.002;2023-02-01T12:50:08;98883.80;;;3.42;100.00
50867;BME280;36839;51.946;21.002;2023-02-01T12:52:49;98885.80;;;3.41;100.00
50867;BME280;36839;51.946;21.002;2023-02-01T12:55:23;98884.85;;;3.40;100.00
50867;BME280;36839;51.946;21.002;2023-02-01T12:58:11;98886.47;;;3.40;100.00
50867;BME280;36839;51.946;21.002;2023-02-01T13:06:59;98886.08;;;3.53;100.00
50867;BME280;36839;51.946;21.002;2023-02-01T13:09:43;98879.77;;;3.57;100.00
50867;BME280;36839;51.946;21.002;2023-02-01T13:12:47;98884.58;;;3.60;100.00
50867;BME280;36839;51.946;21.002;2023-02-01T13:15:30;98879.46;;;3.62;100.00
50867;BME280;36839;51.946;21.002;2023-02-01T13:18:03;98884.48;;;3.63;100.00
50867;BME280;36839;51.946;21.002;2023-02-01T13:20:42;98883.88;;;3.68;100.00
50867;BME280;36839;51.946;21.002;2023-02-01T13:23:30;98880.98;;;3.71;100.00
50867;BME280;36839;51.946;21.002;2023-02-01T13:25:59;98879.27;;;3.70;100.00
50867;BME280;36839;51.946;21.002;2023-02-01T13:28:40;98880.40;;;3.70;100.00
50867;BME280;36839;51.946;21.002;2023-02-01T13:42:57;98868.78;;;3.65;100.00
50867;BME280;36839;51.946;21.002;2023-02-01T13:45:29;98863.13;;;3.61;100.00
50867;BME280;36839;51.946;21.002;2023-02-01T13:48:05;98867.17;;;3.61;100.00
50867;BME280;36839;51.946;21.002;2023-02-01T13:50:37;98865.59;;;3.62;100.00
50867;BME280;36839;51.946;21.002;2023-02-01T13:53:17;98857.43;;;3.67;100.00
50867;BME280;36839;51.946;21.002;2023-02-01T13:55:56;98858.30;;;3.70;100.00
50867;BME280;36839;51.946;21.002;2023-02-01T13:58:36;98860.94;;;3.73;100.00
50867;BME280;36839;51.946;21.002;2023-02-01T14:03:56;98884.98;;;3.76;100.00
50867;BME280;36839;51.946;21.002;2023-02-01T14:06:47;98883.89;;;3.74;100.00
50867;BME280;36839;51.946;21.002;2023-02-01T14:09:32;98892.84;;;3.70;100.00
50867;BME280;36839;51.946;21.002;2023-02-01T14:15:27;98889.96;;;3.64;100.00
50867;BME280;36839;51.946;21.002;2023-02-01T14:17:55;98887.49;;;3.63;100.00
50867;BME280;36839;51.946;21.002;2023-02-01T14:20:41;98886.23;;;3.62;100.00
50867;BME280;36839;51.946;21.002;2023-02-01T14:23:14;98889.30;;;3.59;100.00
50867;BME280;36839;51.946;21.002;2023-02-01T14:25:44;98881.35;;;3.60;100.00
50867;BME280;36839;51.946;21.002;2023-02-01T14:28:32;98879.77;;;3.60;100.00
50867;BME280;36839;51.946;21.002;2023-02-01T14:37:00;98882.86;;;3.60;100.00
50867;BME280;36839;51.946;21.002;2023-02-01T14:50:32;98881.48;;;3.48;100.00
50867;BME280;36839;51.946;21.002;2023-02-01T14:58:48;98896.96;;;3.35;100.00
50867;BME280;36839;51.946;21.002;2023-02-01T15:01:23;98900.02;;;3.30;100.00
50867;BME280;36839;51.946;21.002;2023-02-01T15:06:41;98901.01;;;3.21;100.00
50867;BME280;36839;51.946;21.002;2023-02-01T15:09:38;98902.64;;;3.18;100.00
50867;BME280;36839;51.946;21.002;2023-02-01T15:15:12;98904.27;;;3.15;100.00
50867;BME280;36839;51.946;21.002;2023-02-01T15:17:41;98904.16;;;3.14;100.00
50867;BME280;36839;51.946;21.002;2023-02-01T15:20:14;98908.26;;;3.16;100.00
50867;BME280;36839;51.946;21.002;2023-02-01T15:22:58;98911.43;;;3.18;100.00
50867;BME280;36839;51.946;21.002;2023-02-01T15:25:36;98917.94;;;3.19;100.00
50867;BME280;36839;51.946;21.002;2023-02-01T15:28:10;98915.01;;;3.21;100.00
50867;BME280;36839;51.946;21.002;2023-02-01T15:31:02;98918.30;;;3.22;100.00
50867;BME280;36839;51.946;21.002;2023-02-01T15:33:32;98916.55;;;3.22;100.00
50867;BME280;36839;51.946;21.002;2023-02-01T15:36:07;98920.59;;;3.22;100.00
50867;BME280;36839;51.946;21.002;2023-02-01T15:38:42;98916.11;;;3.21;100.00
50867;BME280;36839;51.946;21.002;2023-02-01T15:41:14;98917.50;;;3.23;100.00
50867;BME280;36839;51.946;21.002;2023-02-01T15:44:46;98917.34;;;3.18;100.00
50867;BME280;36839;51.946;21.002;2023-02-01T15:47:13;98919.60;;;3.08;100.00
50867;BME280;36839;51.946;21.002;2023-02-01T15:49:43;98915.94;;;2.98;100.00
50867;BME280;36839;51.946;21.002;2023-02-01T15:54:50;98920.88;;;2.85;100.00
50867;BME280;36839;51.946;21.002;2023-02-01T15:57:26;98922.30;;;2.81;100.00
50867;BME280;36839;51.946;21.002;2023-02-01T16:00:03;98920.15;;;2.79;100.00